地図

経路データ

SID SEASON NUMBER BASIN SUBBASIN NAME ISO_TIME NATURE LAT LON WMO_WIND WMO_PRES WMO_AGENCY TRACK_TYPE DIST2LAND LANDFALL IFLAG USA_AGENCY USA_ATCF_ID USA_LAT USA_LON USA_RECORD USA_STATUS USA_WIND USA_PRES USA_SSHS USA_R34_NE USA_R34_SE USA_R34_SW USA_R34_NW USA_R50_NE USA_R50_SE USA_R50_SW USA_R50_NW USA_R64_NE USA_R64_SE USA_R64_SW USA_R64_NW USA_POCI USA_ROCI USA_RMW USA_EYE TOKYO_LAT TOKYO_LON TOKYO_GRADE TOKYO_WIND TOKYO_PRES TOKYO_R50_DIR TOKYO_R50_LONG TOKYO_R50_SHORT TOKYO_R30_DIR TOKYO_R30_LONG TOKYO_R30_SHORT TOKYO_LAND CMA_LAT CMA_LON CMA_CAT CMA_WIND CMA_PRES HKO_LAT HKO_LON HKO_CAT HKO_WIND HKO_PRES NEWDELHI_LAT NEWDELHI_LON NEWDELHI_GRADE NEWDELHI_WIND NEWDELHI_PRES NEWDELHI_CI NEWDELHI_DP NEWDELHI_POCI REUNION_LAT REUNION_LON REUNION_TYPE REUNION_WIND REUNION_PRES REUNION_TNUM REUNION_CI REUNION_RMW REUNION_R34_NE REUNION_R34_SE REUNION_R34_SW REUNION_R34_NW REUNION_R50_NE REUNION_R50_SE REUNION_R50_SW REUNION_R50_NW REUNION_R64_NE REUNION_R64_SE REUNION_R64_SW REUNION_R64_NW BOM_LAT BOM_LON BOM_TYPE BOM_WIND BOM_PRES BOM_TNUM BOM_CI BOM_RMW BOM_R34_NE BOM_R34_SE BOM_R34_SW BOM_R34_NW BOM_R50_NE BOM_R50_SE BOM_R50_SW BOM_R50_NW BOM_R64_NE BOM_R64_SE BOM_R64_SW BOM_R64_NW BOM_ROCI BOM_POCI BOM_EYE BOM_POS_METHOD BOM_PRES_METHOD NADI_LAT NADI_LON NADI_CAT NADI_WIND NADI_PRES WELLINGTON_LAT WELLINGTON_LON WELLINGTON_WIND WELLINGTON_PRES DS824_LAT DS824_LON DS824_STAGE DS824_WIND DS824_PRES TD9636_LAT TD9636_LON TD9636_STAGE TD9636_WIND TD9636_PRES TD9635_LAT TD9635_LON TD9635_WIND TD9635_PRES TD9635_ROCI NEUMANN_LAT NEUMANN_LON NEUMANN_CLASS NEUMANN_WIND NEUMANN_PRES MLC_LAT MLC_LON MLC_CLASS MLC_WIND MLC_PRES USA_GUST BOM_GUST BOM_GUST_PER REUNION_GUST REUNION_GUST_PER USA_SEAHGT USA_SEARAD_NE USA_SEARAD_SE USA_SEARAD_SW USA_SEARAD_NW STORM_SPEED STORM_DIR
1951285N16280 1951 79 NA CS ITEM 1951-10-12 06:00:00 TS 15.5000 -80.2000 30 hurdat_atl main 316 303 O_____________ hurdat_atl AL101951 15.5000 -80.2000 TD 30 -1 8 332
1951285N16280 1951 79 NA CS ITEM 1951-10-12 09:00:00 TS 15.8450 -80.3875 main 303 294 P_____________ AL101951 15.8450 -80.3875 TD 30 -1 8 331
1951285N16280 1951 79 NA CS ITEM 1951-10-12 12:00:00 TS 16.2000 -80.6000 30 hurdat_atl main 299 291 O_____________ hurdat_atl AL101951 16.2000 -80.6000 TD 30 -1 9 328
1951285N16280 1951 79 NA CS ITEM 1951-10-12 15:00:00 TS 16.5650 -80.8500 main 304 293 P_____________ AL101951 16.5650 -80.8500 TD 30 -1 9 326
1951285N16280 1951 79 NA CS ITEM 1951-10-12 18:00:00 TS 16.9000 -81.1000 30 hurdat_atl main 301 301 O_____________ hurdat_atl AL101951 16.9000 -81.1000 TD 30 -1 8 324
1951285N16280 1951 79 NA CS ITEM 1951-10-12 21:00:00 TS 17.1725 -81.3151 main 309 301 P_____________ AL101951 17.1725 -81.3151 TD 30 -1 6 323
1951285N16280 1951 79 NA CS ITEM 1951-10-13 00:00:00 TS 17.4000 -81.5000 30 hurdat_atl main 310 310 O_____________ hurdat_atl AL101951 17.4000 -81.5000 TD 30 -1 6 324
1951285N16280 1951 79 NA CS ITEM 1951-10-13 03:00:00 TS 17.6150 -81.6576 main 314 314 P_____________ AL101951 17.6150 -81.6576 TD 32 -1 5 325
1951285N16280 1951 79 NA CS ITEM 1951-10-13 06:00:00 TS 17.8000 -81.8000 35 hurdat_atl main 327 327 O_____________ hurdat_atl AL101951 17.8000 -81.8000 TS 35 0 4 319
1951285N16280 1951 79 NA CS ITEM 1951-10-13 09:00:00 TS 17.9500 -81.9650 main 336 332 P_____________ AL101951 17.9500 -81.9650 TS 35 0 4 317
1951285N16280 1951 79 NA CS ITEM 1951-10-13 12:00:00 TS 18.1000 -82.1000 35 hurdat_atl main 342 342 O_____________ hurdat_atl AL101951 18.1000 -82.1000 TS 35 0 4 330
1951285N16280 1951 79 NA CS ITEM 1951-10-13 15:00:00 TS 18.2925 -82.1725 main 352 330 P_____________ AL101951 18.2925 -82.1725 TS 37 0 4 347
1951285N16280 1951 79 NA CS ITEM 1951-10-13 18:00:00 TS 18.5000 -82.2000 40 hurdat_atl main 330 308 O_____________ hurdat_atl AL101951 18.5000 -82.2000 TS 40 0 4 356
1951285N16280 1951 79 NA CS ITEM 1951-10-13 21:00:00 TS 18.6850 -82.2225 main 308 286 P_____________ AL101951 18.6850 -82.2225 TS 42 0 4 0
1951285N16280 1951 79 NA CS ITEM 1951-10-14 00:00:00 TS 18.9000 -82.2000 45 hurdat_atl main 286 256 O_____________ hurdat_atl AL101951 18.9000 -82.2000 TS 45 0 5 13
1951285N16280 1951 79 NA CS ITEM 1951-10-14 03:00:00 TS 19.1850 -82.1076 main 256 228 P_____________ AL101951 19.1850 -82.1076 TS 47 0 6 18
1951285N16280 1951 79 NA CS ITEM 1951-10-14 06:00:00 TS 19.5000 -82.0000 50 hurdat_atl main 228 201 O_____________ hurdat_atl AL101951 19.5000 -82.0000 TS 50 0 7 14
1951285N16280 1951 79 NA CS ITEM 1951-10-14 09:00:00 TS 19.8150 -81.9425 main 201 172 P_____________ AL101951 19.8150 -81.9425 TS 52 0 6 9
1951285N16280 1951 79 NA CS ITEM 1951-10-14 12:00:00 TS 20.1000 -81.9000 55 hurdat_atl main 172 154 O_____________ hurdat_atl AL101951 20.1000 -81.9000 TS 55 0 5 10
1951285N16280 1951 79 NA CS ITEM 1951-10-14 15:00:00 TS 20.3300 -81.8425 main 161 142 P_____________ AL101951 20.3300 -81.8425 TS 55 0 4 13
1951285N16280 1951 79 NA CS ITEM 1951-10-14 18:00:00 TS 20.5000 -81.8000 55 1000 hurdat_atl main 142 133 O_____________ hurdat_atl AL101951 20.5000 -81.8000 TS 55 1000 0 3 12
1951285N16280 1951 79 NA CS ITEM 1951-10-14 21:00:00 TS 20.6225 -81.7850 main 133 124 P_____________ AL101951 20.6225 -81.7850 TS 55 0 2 8
1951285N16280 1951 79 NA CS ITEM 1951-10-15 00:00:00 TS 20.7000 -81.8000 55 hurdat_atl main 124 115 O_____________ hurdat_atl AL101951 20.7000 -81.8000 TS 55 0 1 336
1951285N16280 1951 79 NA CS ITEM 1951-10-15 03:00:00 TS 20.7575 -81.8500 main 115 108 P_____________ AL101951 20.7575 -81.8500 TS 55 0 1 317
1951285N16280 1951 79 NA CS ITEM 1951-10-15 06:00:00 TS 20.8000 -81.9000 55 hurdat_atl main 108 108 O_____________ hurdat_atl AL101951 20.8000 -81.9000 TS 55 0 1 324
1951285N16280 1951 79 NA CS ITEM 1951-10-15 09:00:00 TS 20.8425 -81.9075 main 108 99 P_____________ AL101951 20.8425 -81.9075 TS 55 0 1 0
1951285N16280 1951 79 NA CS ITEM 1951-10-15 12:00:00 TS 20.9000 -81.9000 55 hurdat_atl main 99 91 O_____________ hurdat_atl AL101951 20.9000 -81.9000 TS 55 0 2 0
1951285N16280 1951 79 NA CS ITEM 1951-10-15 15:00:00 TS 20.9925 -81.8925 main 91 83 P_____________ AL101951 20.9925 -81.8925 TS 55 0 2 8
1951285N16280 1951 79 NA CS ITEM 1951-10-15 18:00:00 TS 21.1000 -81.9000 55 998 hurdat_atl main 83 76 O_____________ hurdat_atl AL101951 21.1000 -81.9000 TS 55 998 0 2 343
1951285N16280 1951 79 NA CS ITEM 1951-10-15 21:00:00 TS 21.2000 -81.9500 main 76 61 P_____________ AL101951 21.2000 -81.9500 TS 50 0 2 333
1951285N16280 1951 79 NA CS ITEM 1951-10-16 00:00:00 TS 21.3000 -82.0000 45 hurdat_atl main 61 56 O_____________ hurdat_atl AL101951 21.3000 -82.0000 TS 45 0 2 343
1951285N16280 1951 79 NA CS ITEM 1951-10-16 03:00:00 TS 21.4000 -82.0075 main 56 52 P_____________ AL101951 21.4000 -82.0075 TS 40 0 2 8
1951285N16280 1951 79 NA CS ITEM 1951-10-16 06:00:00 TS 21.5000 -82.0000 35 hurdat_atl main 52 51 O_____________ hurdat_atl AL101951 21.5000 -82.0000 TS 35 0 2 7
1951285N16280 1951 79 NA CS ITEM 1951-10-16 09:00:00 TS 21.5925 -81.9925 main 51 51 P_____________ AL101951 21.5925 -81.9925 TS 30 -1 2 8
1951285N16280 1951 79 NA CS ITEM 1951-10-16 12:00:00 TS 21.7000 -82.0000 25 1009 hurdat_atl main 52 49 O_____________ hurdat_atl AL101951 21.7000 -82.0000 TD 25 1009 -1 3 351
1951285N16280 1951 79 NA CS ITEM 1951-10-16 15:00:00 TS 21.8425 -82.0350 main 49 35 P_____________ AL101951 21.8425 -82.0350 TD 25 -1 3 343
1951285N16280 1951 79 NA CS ITEM 1951-10-16 18:00:00 TS 22.0000 -82.1000 25 hurdat_atl main 35 24 O_____________ hurdat_atl AL101951 22.0000 -82.1000 TD 25 -1 3 334
1951285N16280 1951 79 NA CS ITEM 1951-10-16 21:00:00 TS 22.1425 -82.1925 main 30 15 P_____________ AL101951 22.1425 -82.1925 TD 25 -1 4 329
1951285N16280 1951 79 NA CS ITEM 1951-10-17 00:00:00 TS 22.3000 -82.3000 25 hurdat_atl main 15 10 O_____________ hurdat_atl AL101951 22.3000 -82.3000 TD 25 -1 4 330
1951285N16280 1951 79 NA CS ITEM 1951-10-17 03:00:00 TS 22.4850 -82.4000 main 22 0 P_____________ AL101951 22.4850 -82.4000 TD 25 -1 4 335
1951285N16280 1951 79 NA CS ITEM 1951-10-17 06:00:00 TS 22.7000 -82.5000 25 hurdat_atl main 0 0 O_____________ hurdat_atl AL101951 22.7000 -82.5000 TD 25 -1 5 338
1951285N16280 1951 79 NA NA ITEM 1951-10-17 09:00:00 TS 22.9500 -82.6000 main 0 0 P_____________ AL101951 22.9500 -82.6000 TD 25 -1 5 340
1951285N16280 1951 79 NA NA ITEM 1951-10-17 12:00:00 TS 23.2000 -82.7000 25 hurdat_atl main 22 22 O_____________ hurdat_atl AL101951 23.2000 -82.7000 TD 25 -1 5 338
1951285N16280 1951 79 NA NA ITEM 1951-10-17 15:00:00 TS 23.4125 -82.8000 main 44 44 P_____________ AL101951 23.4125 -82.8000 TD 25 -1 4 335
1951285N16280 1951 79 NA NA ITEM 1951-10-17 18:00:00 TS 23.6000 -82.9000 25 hurdat_atl main 67 O_____________ hurdat_atl AL101951 23.6000 -82.9000 TD 25 -1 4 336

IBTrACS Databaseについて

本データベースは、米国NOAAが公開する1842年以降の世界の熱帯低気圧のベストトラックデータアーカイブInternational Best Track Archive for Climate Stewardship (IBTrACS)を、ウェブで閲覧しやすい形式に変換したものです。

最終更新日:2021-10-27